sensor_id;sensor_type;location;lat;lon;timestamp;P1;durP1;ratioP1;P2;durP2;ratioP2
45540;SDS011;31265;49.680;8.608;2022-08-21T00:01:03;4.40;;;2.40;;
45540;SDS011;31265;49.680;8.608;2022-08-21T00:03:33;3.35;;;1.00;;
45540;SDS011;31265;49.680;8.608;2022-08-21T00:06:01;4.00;;;1.42;;
45540;SDS011;31265;49.680;8.608;2022-08-21T00:08:30;2.00;;;1.10;;
45540;SDS011;31265;49.680;8.608;2022-08-21T00:10:58;4.78;;;1.73;;
45540;SDS011;31265;49.680;8.608;2022-08-21T00:13:28;5.15;;;1.50;;
45540;SDS011;31265;49.680;8.608;2022-08-21T00:15:56;2.85;;;1.15;;
45540;SDS011;31265;49.680;8.608;2022-08-21T00:18:24;3.00;;;1.40;;
45540;SDS011;31265;49.680;8.608;2022-08-21T00:20:53;2.22;;;1.42;;
45540;SDS011;31265;49.680;8.608;2022-08-21T00:23:21;3.75;;;1.50;;
45540;SDS011;31265;49.680;8.608;2022-08-21T00:25:49;2.95;;;1.60;;
45540;SDS011;31265;49.680;8.608;2022-08-21T00:28:18;4.50;;;1.92;;
45540;SDS011;31265;49.680;8.608;2022-08-21T00:30:47;3.67;;;1.58;;
45540;SDS011;31265;49.680;8.608;2022-08-21T00:33:15;2.20;;;1.30;;
45540;SDS011;31265;49.680;8.608;2022-08-21T00:35:43;3.47;;;1.80;;
45540;SDS011;31265;49.680;8.608;2022-08-21T00:38:11;3.80;;;1.60;;
45540;SDS011;31265;49.680;8.608;2022-08-21T00:40:42;6.47;;;2.05;;
45540;SDS011;31265;49.680;8.608;2022-08-21T00:43:12;3.20;;;1.50;;
45540;SDS011;31265;49.680;8.608;2022-08-21T00:45:43;5.50;;;1.70;;
45540;SDS011;31265;49.680;8.608;2022-08-21T00:48:12;4.40;;;1.85;;
45540;SDS011;31265;49.680;8.608;2022-08-21T00:53:16;4.70;;;1.58;;
45540;SDS011;31265;49.680;8.608;2022-08-21T00:55:45;6.38;;;1.88;;
45540;SDS011;31265;49.680;8.608;2022-08-21T00:58:15;3.03;;;1.65;;
45540;SDS011;31265;49.680;8.608;2022-08-21T01:00:47;4.00;;;1.67;;
45540;SDS011;31265;49.680;8.608;2022-08-21T01:03:20;3.97;;;2.10;;
45540;SDS011;31265;49.680;8.608;2022-08-21T01:05:52;5.28;;;2.25;;
45540;SDS011;31265;49.680;8.608;2022-08-21T01:08:20;3.00;;;1.65;;
45540;SDS011;31265;49.680;8.608;2022-08-21T01:10:49;3.10;;;1.83;;
45540;SDS011;31265;49.680;8.608;2022-08-21T01:13:24;10.18;;;2.80;;
45540;SDS011;31265;49.680;8.608;2022-08-21T01:15:54;14.32;;;2.40;;
45540;SDS011;31265;49.680;8.608;2022-08-21T01:18:27;3.60;;;1.73;;
45540;SDS011;31265;49.680;8.608;2022-08-21T01:21:00;4.15;;;2.10;;
45540;SDS011;31265;49.680;8.608;2022-08-21T01:23:33;3.55;;;1.77;;
45540;SDS011;31265;49.680;8.608;2022-08-21T01:26:02;4.40;;;2.13;;
45540;SDS011;31265;49.680;8.608;2022-08-21T01:28:32;6.57;;;1.60;;
45540;SDS011;31265;49.680;8.608;2022-08-21T01:31:05;3.30;;;1.90;;
45540;SDS011;31265;49.680;8.608;2022-08-21T01:33:35;6.80;;;2.10;;
45540;SDS011;31265;49.680;8.608;2022-08-21T01:36:06;3.63;;;2.10;;
45540;SDS011;31265;49.680;8.608;2022-08-21T01:38:34;3.13;;;1.75;;
45540;SDS011;31265;49.680;8.608;2022-08-21T01:41:02;4.63;;;2.08;;
45540;SDS011;31265;49.680;8.608;2022-08-21T01:43:31;5.03;;;2.08;;
45540;SDS011;31265;49.680;8.608;2022-08-21T01:46:05;4.47;;;1.88;;
45540;SDS011;31265;49.680;8.608;2022-08-21T01:48:33;5.93;;;2.00;;
45540;SDS011;31265;49.680;8.608;2022-08-21T01:51:02;4.88;;;2.50;;
45540;SDS011;31265;49.680;8.608;2022-08-21T01:53:33;3.67;;;2.22;;
45540;SDS011;31265;49.680;8.608;2022-08-21T01:56:04;3.60;;;2.15;;
45540;SDS011;31265;49.680;8.608;2022-08-21T01:58:38;4.25;;;1.98;;
45540;SDS011;31265;49.680;8.608;2022-08-21T02:01:07;4.85;;;2.60;;
45540;SDS011;31265;49.680;8.608;2022-08-21T02:03:36;3.28;;;1.77;;
45540;SDS011;31265;49.680;8.608;2022-08-21T02:06:05;4.20;;;1.85;;
45540;SDS011;31265;49.680;8.608;2022-08-21T02:08:35;3.60;;;1.67;;
45540;SDS011;31265;49.680;8.608;2022-08-21T02:11:03;5.57;;;2.78;;
45540;SDS011;31265;49.680;8.608;2022-08-21T02:13:31;3.50;;;1.85;;
45540;SDS011;31265;49.680;8.608;2022-08-21T02:15:59;3.45;;;1.85;;
45540;SDS011;31265;49.680;8.608;2022-08-21T02:18:27;3.75;;;2.42;;
45540;SDS011;31265;49.680;8.608;2022-08-21T02:20:56;2.85;;;1.80;;
45540;SDS011;31265;49.680;8.608;2022-08-21T02:23:24;4.70;;;2.17;;
45540;SDS011;31265;49.680;8.608;2022-08-21T02:25:54;4.63;;;2.15;;
45540;SDS011;31265;49.680;8.608;2022-08-21T02:28:24;5.35;;;2.20;;
45540;SDS011;31265;49.680;8.608;2022-08-21T02:30:53;4.43;;;1.60;;
45540;SDS011;31265;49.680;8.608;2022-08-21T02:35:51;4.15;;;1.80;;
45540;SDS011;31265;49.680;8.608;2022-08-21T02:38:21;6.35;;;1.77;;
45540;SDS011;31265;49.680;8.608;2022-08-21T02:40:51;4.82;;;2.05;;
45540;SDS011;31265;49.680;8.608;2022-08-21T02:43:23;3.03;;;1.45;;
45540;SDS011;31265;49.680;8.608;2022-08-21T02:45:54;3.22;;;1.77;;
45540;SDS011;31265;49.680;8.608;2022-08-21T02:48:23;3.22;;;1.80;;
45540;SDS011;31265;49.680;8.608;2022-08-21T02:50:54;6.07;;;2.35;;
45540;SDS011;31265;49.680;8.608;2022-08-21T02:53:24;5.93;;;1.95;;
45540;SDS011;31265;49.680;8.608;2022-08-21T02:55:53;3.45;;;2.10;;
45540;SDS011;31265;49.680;8.608;2022-08-21T02:58:24;3.85;;;1.88;;
45540;SDS011;31265;49.680;8.608;2022-08-21T03:00:53;3.03;;;2.08;;
45540;SDS011;31265;49.680;8.608;2022-08-21T03:03:21;6.63;;;2.03;;
45540;SDS011;31265;49.680;8.608;2022-08-21T03:05:50;3.45;;;2.10;;
45540;SDS011;31265;49.680;8.608;2022-08-21T03:08:18;7.40;;;2.17;;
45540;SDS011;31265;49.680;8.608;2022-08-21T03:10:50;4.75;;;2.38;;
45540;SDS011;31265;49.680;8.608;2022-08-21T03:13:19;5.05;;;1.88;;
45540;SDS011;31265;49.680;8.608;2022-08-21T03:15:50;4.35;;;1.83;;
45540;SDS011;31265;49.680;8.608;2022-08-21T03:18:18;4.78;;;2.15;;
45540;SDS011;31265;49.680;8.608;2022-08-21T03:20:46;3.67;;;2.00;;
45540;SDS011;31265;49.680;8.608;2022-08-21T03:23:15;3.33;;;1.92;;
45540;SDS011;31265;49.680;8.608;2022-08-21T03:25:45;4.95;;;2.60;;
45540;SDS011;31265;49.680;8.608;2022-08-21T03:28:16;3.13;;;1.58;;
45540;SDS011;31265;49.680;8.608;2022-08-21T03:30:47;4.35;;;2.13;;
45540;SDS011;31265;49.680;8.608;2022-08-21T03:33:18;3.78;;;1.65;;
45540;SDS011;31265;49.680;8.608;2022-08-21T03:35:52;2.55;;;1.70;;
45540;SDS011;31265;49.680;8.608;2022-08-21T03:38:25;5.80;;;2.22;;
45540;SDS011;31265;49.680;8.608;2022-08-21T03:40:54;2.58;;;1.33;;
45540;SDS011;31265;49.680;8.608;2022-08-21T03:43:23;5.78;;;2.10;;
45540;SDS011;31265;49.680;8.608;2022-08-21T03:45:51;3.70;;;1.85;;
45540;SDS011;31265;49.680;8.608;2022-08-21T03:48:20;3.83;;;1.92;;
45540;SDS011;31265;49.680;8.608;2022-08-21T03:50:51;3.17;;;1.92;;
45540;SDS011;31265;49.680;8.608;2022-08-21T03:53:20;7.18;;;2.22;;
45540;SDS011;31265;49.680;8.608;2022-08-21T03:55:49;4.38;;;2.08;;
45540;SDS011;31265;49.680;8.608;2022-08-21T03:58:19;3.45;;;1.70;;
45540;SDS011;31265;49.680;8.608;2022-08-21T04:00:50;4.70;;;1.90;;
45540;SDS011;31265;49.680;8.608;2022-08-21T04:03:21;3.72;;;2.10;;
45540;SDS011;31265;49.680;8.608;2022-08-21T04:05:50;4.03;;;1.85;;
45540;SDS011;31265;49.680;8.608;2022-08-21T04:08:18;4.00;;;2.08;;
45540;SDS011;31265;49.680;8.608;2022-08-21T04:10:47;7.32;;;2.45;;
45540;SDS011;31265;49.680;8.608;2022-08-21T04:13:18;3.03;;;1.85;;
45540;SDS011;31265;49.680;8.608;2022-08-21T04:15:46;7.43;;;2.20;;
45540;SDS011;31265;49.680;8.608;2022-08-21T04:18:14;4.85;;;1.88;;
45540;SDS011;31265;49.680;8.608;2022-08-21T04:20:44;3.63;;;1.83;;
45540;SDS011;31265;49.680;8.608;2022-08-21T04:23:16;4.75;;;2.47;;
45540;SDS011;31265;49.680;8.608;2022-08-21T04:25:50;4.40;;;1.83;;
45540;SDS011;31265;49.680;8.608;2022-08-21T04:28:18;3.92;;;2.22;;
45540;SDS011;31265;49.680;8.608;2022-08-21T04:30:48;2.97;;;1.65;;
45540;SDS011;31265;49.680;8.608;2022-08-21T04:35:47;6.75;;;2.67;;
45540;SDS011;31265;49.680;8.608;2022-08-21T04:38:16;3.42;;;2.05;;
45540;SDS011;31265;49.680;8.608;2022-08-21T04:40:45;3.20;;;1.88;;
45540;SDS011;31265;49.680;8.608;2022-08-21T04:43:13;3.95;;;1.92;;
45540;SDS011;31265;49.680;8.608;2022-08-21T04:45:42;8.48;;;1.95;;
45540;SDS011;31265;49.680;8.608;2022-08-21T04:48:14;3.55;;;1.75;;
45540;SDS011;31265;49.680;8.608;2022-08-21T04:50:45;3.55;;;2.13;;
45540;SDS011;31265;49.680;8.608;2022-08-21T04:53:18;3.47;;;1.75;;
45540;SDS011;31265;49.680;8.608;2022-08-21T04:55:49;4.03;;;1.60;;
45540;SDS011;31265;49.680;8.608;2022-08-21T04:58:20;4.40;;;1.88;;
45540;SDS011;31265;49.680;8.608;2022-08-21T05:00:50;2.92;;;1.67;;
45540;SDS011;31265;49.680;8.608;2022-08-21T05:05:49;3.60;;;1.88;;
45540;SDS011;31265;49.680;8.608;2022-08-21T05:10:49;5.20;;;1.80;;
45540;SDS011;31265;49.680;8.608;2022-08-21T05:13:22;2.67;;;1.42;;
45540;SDS011;31265;49.680;8.608;2022-08-21T05:15:50;3.28;;;1.55;;
45540;SDS011;31265;49.680;8.608;2022-08-21T05:18:19;4.25;;;1.80;;
45540;SDS011;31265;49.680;8.608;2022-08-21T05:20:47;5.60;;;2.50;;
45540;SDS011;31265;49.680;8.608;2022-08-21T05:23:16;5.38;;;2.50;;
45540;SDS011;31265;49.680;8.608;2022-08-21T05:25:45;5.50;;;2.42;;
45540;SDS011;31265;49.680;8.608;2022-08-21T05:28:14;3.53;;;1.70;;
45540;SDS011;31265;49.680;8.608;2022-08-21T05:30:42;2.97;;;1.75;;
45540;SDS011;31265;49.680;8.608;2022-08-21T05:33:10;4.90;;;1.77;;
45540;SDS011;31265;49.680;8.608;2022-08-21T05:35:38;3.15;;;1.70;;
45540;SDS011;31265;49.680;8.608;2022-08-21T05:38:07;4.55;;;1.55;;
45540;SDS011;31265;49.680;8.608;2022-08-21T05:40:45;5.10;;;1.92;;
45540;SDS011;31265;49.680;8.608;2022-08-21T05:43:13;3.83;;;1.55;;
45540;SDS011;31265;49.680;8.608;2022-08-21T05:45:42;8.73;;;1.80;;
45540;SDS011;31265;49.680;8.608;2022-08-21T05:48:11;3.97;;;2.10;;
45540;SDS011;31265;49.680;8.608;2022-08-21T05:50:42;6.38;;;1.90;;
45540;SDS011;31265;49.680;8.608;2022-08-21T05:55:40;6.00;;;2.37;;
45540;SDS011;31265;49.680;8.608;2022-08-21T05:58:14;6.20;;;1.83;;
45540;SDS011;31265;49.680;8.608;2022-08-21T06:00:43;3.22;;;1.60;;
45540;SDS011;31265;49.680;8.608;2022-08-21T06:03:15;3.67;;;1.42;;
45540;SDS011;31265;49.680;8.608;2022-08-21T06:05:44;6.13;;;2.08;;
45540;SDS011;31265;49.680;8.608;2022-08-21T06:08:13;3.47;;;1.75;;
45540;SDS011;31265;49.680;8.608;2022-08-21T06:10:42;2.90;;;1.70;;
45540;SDS011;31265;49.680;8.608;2022-08-21T06:13:11;3.42;;;1.60;;
45540;SDS011;31265;49.680;8.608;2022-08-21T06:15:41;3.58;;;1.73;;
45540;SDS011;31265;49.680;8.608;2022-08-21T06:18:09;3.10;;;1.55;;
45540;SDS011;31265;49.680;8.608;2022-08-21T06:20:38;4.25;;;1.70;;
45540;SDS011;31265;49.680;8.608;2022-08-21T06:23:06;3.83;;;1.70;;
45540;SDS011;31265;49.680;8.608;2022-08-21T06:25:35;4.07;;;1.67;;
45540;SDS011;31265;49.680;8.608;2022-08-21T06:28:04;3.67;;;1.40;;
45540;SDS011;31265;49.680;8.608;2022-08-21T06:30:33;4.47;;;1.70;;
45540;SDS011;31265;49.680;8.608;2022-08-21T06:33:04;5.28;;;1.58;;
45540;SDS011;31265;49.680;8.608;2022-08-21T06:35:33;5.78;;;1.88;;
45540;SDS011;31265;49.680;8.608;2022-08-21T06:38:06;2.80;;;1.45;;
45540;SDS011;31265;49.680;8.608;2022-08-21T06:40:34;4.55;;;1.67;;
45540;SDS011;31265;49.680;8.608;2022-08-21T06:43:10;4.22;;;1.63;;
45540;SDS011;31265;49.680;8.608;2022-08-21T06:45:41;4.18;;;1.92;;
45540;SDS011;31265;49.680;8.608;2022-08-21T06:48:11;2.45;;;1.27;;
45540;SDS011;31265;49.680;8.608;2022-08-21T06:50:45;5.55;;;2.17;;
45540;SDS011;31265;49.680;8.608;2022-08-21T06:53:14;4.47;;;1.73;;
45540;SDS011;31265;49.680;8.608;2022-08-21T06:55:43;3.28;;;1.60;;
45540;SDS011;31265;49.680;8.608;2022-08-21T06:58:12;6.53;;;1.95;;
45540;SDS011;31265;49.680;8.608;2022-08-21T07:00:42;5.80;;;1.70;;
45540;SDS011;31265;49.680;8.608;2022-08-21T07:03:20;2.55;;;1.45;;
45540;SDS011;31265;49.680;8.608;2022-08-21T07:08:19;3.15;;;1.55;;
45540;SDS011;31265;49.680;8.608;2022-08-21T07:10:48;4.53;;;1.98;;
45540;SDS011;31265;49.680;8.608;2022-08-21T07:13:17;4.45;;;1.95;;
45540;SDS011;31265;49.680;8.608;2022-08-21T07:15:45;3.35;;;1.52;;
45540;SDS011;31265;49.680;8.608;2022-08-21T07:18:14;4.53;;;1.58;;
45540;SDS011;31265;49.680;8.608;2022-08-21T07:20:43;3.65;;;1.80;;
45540;SDS011;31265;49.680;8.608;2022-08-21T07:23:12;3.67;;;1.85;;
45540;SDS011;31265;49.680;8.608;2022-08-21T07:25:49;2.95;;;1.80;;
45540;SDS011;31265;49.680;8.608;2022-08-21T07:28:17;4.00;;;1.50;;
45540;SDS011;31265;49.680;8.608;2022-08-21T07:30:46;4.13;;;1.85;;
45540;SDS011;31265;49.680;8.608;2022-08-21T07:33:19;6.80;;;2.15;;
45540;SDS011;31265;49.680;8.608;2022-08-21T07:35:48;5.78;;;2.55;;
45540;SDS011;31265;49.680;8.608;2022-08-21T07:38:16;5.93;;;1.83;;
45540;SDS011;31265;49.680;8.608;2022-08-21T07:40:45;4.40;;;1.80;;
45540;SDS011;31265;49.680;8.608;2022-08-21T07:43:14;9.55;;;2.10;;
45540;SDS011;31265;49.680;8.608;2022-08-21T07:45:43;4.88;;;1.70;;
45540;SDS011;31265;49.680;8.608;2022-08-21T07:48:12;7.70;;;2.03;;
45540;SDS011;31265;49.680;8.608;2022-08-21T07:50:40;4.22;;;1.90;;
45540;SDS011;31265;49.680;8.608;2022-08-21T07:53:10;3.42;;;1.77;;
45540;SDS011;31265;49.680;8.608;2022-08-21T07:55:38;4.03;;;1.48;;
45540;SDS011;31265;49.680;8.608;2022-08-21T07:58:06;2.85;;;1.70;;
45540;SDS011;31265;49.680;8.608;2022-08-21T08:00:34;6.10;;;1.75;;
45540;SDS011;31265;49.680;8.608;2022-08-21T08:03:03;3.33;;;1.60;;
45540;SDS011;31265;49.680;8.608;2022-08-21T08:05:31;7.05;;;2.53;;
45540;SDS011;31265;49.680;8.608;2022-08-21T08:08:03;4.50;;;1.83;;
45540;SDS011;31265;49.680;8.608;2022-08-21T08:10:33;6.72;;;2.10;;
45540;SDS011;31265;49.680;8.608;2022-08-21T08:13:01;5.00;;;1.77;;
45540;SDS011;31265;49.680;8.608;2022-08-21T08:15:30;3.50;;;1.42;;
45540;SDS011;31265;49.680;8.608;2022-08-21T08:18:03;3.92;;;1.30;;
45540;SDS011;31265;49.680;8.608;2022-08-21T08:20:31;3.00;;;1.50;;
45540;SDS011;31265;49.680;8.608;2022-08-21T08:22:59;5.07;;;1.58;;
45540;SDS011;31265;49.680;8.608;2022-08-21T08:25:28;4.47;;;1.83;;
45540;SDS011;31265;49.680;8.608;2022-08-21T08:28:04;4.00;;;1.50;;
45540;SDS011;31265;49.680;8.608;2022-08-21T08:30:43;4.15;;;1.50;;
45540;SDS011;31265;49.680;8.608;2022-08-21T08:33:12;3.63;;;1.80;;
45540;SDS011;31265;49.680;8.608;2022-08-21T08:35:41;4.40;;;1.70;;
45540;SDS011;31265;49.680;8.608;2022-08-21T08:38:10;3.35;;;1.63;;
45540;SDS011;31265;49.680;8.608;2022-08-21T08:40:39;5.13;;;2.00;;
45540;SDS011;31265;49.680;8.608;2022-08-21T08:43:13;6.78;;;1.85;;
45540;SDS011;31265;49.680;8.608;2022-08-21T08:45:42;4.22;;;1.52;;
45540;SDS011;31265;49.680;8.608;2022-08-21T08:48:14;3.30;;;1.50;;
45540;SDS011;31265;49.680;8.608;2022-08-21T08:50:51;3.45;;;1.48;;
45540;SDS011;31265;49.680;8.608;2022-08-21T08:53:22;3.85;;;1.55;;
45540;SDS011;31265;49.680;8.608;2022-08-21T08:55:55;5.50;;;1.77;;
45540;SDS011;31265;49.680;8.608;2022-08-21T08:58:26;2.70;;;1.70;;
45540;SDS011;31265;49.680;8.608;2022-08-21T09:00:56;4.07;;;2.03;;
45540;SDS011;31265;49.680;8.608;2022-08-21T09:03:26;3.92;;;1.80;;
45540;SDS011;31265;49.680;8.608;2022-08-21T09:05:55;3.70;;;1.38;;
45540;SDS011;31265;49.680;8.608;2022-08-21T09:08:38;4.43;;;2.05;;
45540;SDS011;31265;49.680;8.608;2022-08-21T09:11:21;5.30;;;1.92;;
45540;SDS011;31265;49.680;8.608;2022-08-21T09:13:58;3.55;;;1.50;;
45540;SDS011;31265;49.680;8.608;2022-08-21T09:16:47;5.63;;;2.30;;
45540;SDS011;31265;49.680;8.608;2022-08-21T09:19:27;3.30;;;1.60;;
45540;SDS011;31265;49.680;8.608;2022-08-21T09:22:17;4.38;;;1.70;;
45540;SDS011;31265;49.680;8.608;2022-08-21T09:24:56;4.13;;;1.65;;
45540;SDS011;31265;49.680;8.608;2022-08-21T09:27:36;3.90;;;1.67;;
45540;SDS011;31265;49.680;8.608;2022-08-21T09:30:07;1.55;;;0.88;;
45540;SDS011;31265;49.680;8.608;2022-08-21T09:32:37;5.78;;;1.73;;
45540;SDS011;31265;49.680;8.608;2022-08-21T09:35:09;2.13;;;1.10;;
45540;SDS011;31265;49.680;8.608;2022-08-21T09:37:50;2.58;;;1.30;;
45540;SDS011;31265;49.680;8.608;2022-08-21T09:40:23;3.70;;;1.33;;
45540;SDS011;31265;49.680;8.608;2022-08-21T09:42:58;3.17;;;1.08;;
45540;SDS011;31265;49.680;8.608;2022-08-21T09:45:30;2.83;;;0.93;;
45540;SDS011;31265;49.680;8.608;2022-08-21T09:48:13;4.78;;;1.55;;
45540;SDS011;31265;49.680;8.608;2022-08-21T09:50:42;3.28;;;1.20;;
45540;SDS011;31265;49.680;8.608;2022-08-21T09:53:15;4.68;;;1.05;;
45540;SDS011;31265;49.680;8.608;2022-08-21T09:55:49;2.53;;;0.80;;
45540;SDS011;31265;49.680;8.608;2022-08-21T09:58:37;3.67;;;1.20;;
45540;SDS011;31265;49.680;8.608;2022-08-21T10:01:12;2.05;;;0.80;;
45540;SDS011;31265;49.680;8.608;2022-08-21T10:03:43;3.33;;;1.13;;
45540;SDS011;31265;49.680;8.608;2022-08-21T10:06:20;3.88;;;1.77;;
45540;SDS011;31265;49.680;8.608;2022-08-21T10:08:50;2.38;;;1.30;;
45540;SDS011;31265;49.680;8.608;2022-08-21T10:11:18;5.25;;;1.23;;
45540;SDS011;31265;49.680;8.608;2022-08-21T10:13:56;2.45;;;0.93;;
45540;SDS011;31265;49.680;8.608;2022-08-21T10:16:35;4.05;;;1.20;;
45540;SDS011;31265;49.680;8.608;2022-08-21T10:19:13;3.53;;;0.98;;
45540;SDS011;31265;49.680;8.608;2022-08-21T10:21:53;3.25;;;1.08;;
45540;SDS011;31265;49.680;8.608;2022-08-21T10:24:28;3.50;;;1.40;;
45540;SDS011;31265;49.680;8.608;2022-08-21T10:27:02;3.35;;;1.02;;
45540;SDS011;31265;49.680;8.608;2022-08-21T10:29:45;3.35;;;0.85;;
45540;SDS011;31265;49.680;8.608;2022-08-21T10:32:33;3.05;;;1.35;;
45540;SDS011;31265;49.680;8.608;2022-08-21T10:35:12;1.77;;;0.80;;
45540;SDS011;31265;49.680;8.608;2022-08-21T10:37:46;1.95;;;1.00;;
45540;SDS011;31265;49.680;8.608;2022-08-21T10:40:25;5.47;;;1.20;;
45540;SDS011;31265;49.680;8.608;2022-08-21T10:43:02;1.30;;;0.65;;
45540;SDS011;31265;49.680;8.608;2022-08-21T10:45:42;3.55;;;0.88;;
45540;SDS011;31265;49.680;8.608;2022-08-21T10:48:23;1.95;;;0.80;;
45540;SDS011;31265;49.680;8.608;2022-08-21T10:50:56;4.63;;;1.58;;
45540;SDS011;31265;49.680;8.608;2022-08-21T10:53:35;2.20;;;0.90;;
45540;SDS011;31265;49.680;8.608;2022-08-21T10:56:13;3.88;;;1.02;;
45540;SDS011;31265;49.680;8.608;2022-08-21T10:58:49;2.33;;;0.77;;
45540;SDS011;31265;49.680;8.608;2022-08-21T11:01:28;2.17;;;1.08;;
45540;SDS011;31265;49.680;8.608;2022-08-21T11:04:07;3.90;;;1.20;;
45540;SDS011;31265;49.680;8.608;2022-08-21T11:06:43;2.22;;;0.60;;
45540;SDS011;31265;49.680;8.608;2022-08-21T11:09:14;2.58;;;0.95;;
45540;SDS011;31265;49.680;8.608;2022-08-21T11:11:46;1.67;;;0.90;;
45540;SDS011;31265;49.680;8.608;2022-08-21T11:14:38;2.10;;;0.60;;
45540;SDS011;31265;49.680;8.608;2022-08-21T11:17:24;1.70;;;0.50;;
45540;SDS011;31265;49.680;8.608;2022-08-21T11:20:03;2.60;;;0.80;;
45540;SDS011;31265;49.680;8.608;2022-08-21T11:22:37;2.00;;;0.90;;
45540;SDS011;31265;49.680;8.608;2022-08-21T11:25:14;2.75;;;0.68;;
45540;SDS011;31265;49.680;8.608;2022-08-21T11:27:54;3.53;;;0.80;;
45540;SDS011;31265;49.680;8.608;2022-08-21T11:30:47;3.58;;;0.77;;
45540;SDS011;31265;49.680;8.608;2022-08-21T11:33:29;1.55;;;0.68;;
45540;SDS011;31265;49.680;8.608;2022-08-21T11:36:12;3.65;;;1.58;;
45540;SDS011;31265;49.680;8.608;2022-08-21T11:38:47;2.33;;;0.80;;
45540;SDS011;31265;49.680;8.608;2022-08-21T11:41:23;2.42;;;0.90;;
45540;SDS011;31265;49.680;8.608;2022-08-21T11:44:00;2.13;;;0.68;;
45540;SDS011;31265;49.680;8.608;2022-08-21T11:46:48;2.10;;;0.90;;
45540;SDS011;31265;49.680;8.608;2022-08-21T11:49:29;1.73;;;0.60;;
45540;SDS011;31265;49.680;8.608;2022-08-21T11:52:10;3.05;;;1.13;;
45540;SDS011;31265;49.680;8.608;2022-08-21T11:54:46;3.35;;;0.90;;
45540;SDS011;31265;49.680;8.608;2022-08-21T11:57:18;1.20;;;0.70;;
45540;SDS011;31265;49.680;8.608;2022-08-21T11:59:49;3.17;;;1.00;;
45540;SDS011;31265;49.680;8.608;2022-08-21T12:02:25;2.83;;;1.00;;
45540;SDS011;31265;49.680;8.608;2022-08-21T12:04:59;2.20;;;0.80;;
45540;SDS011;31265;49.680;8.608;2022-08-21T12:07:36;3.03;;;1.10;;
45540;SDS011;31265;49.680;8.608;2022-08-21T12:10:09;2.25;;;1.00;;
45540;SDS011;31265;49.680;8.608;2022-08-21T12:12:40;1.67;;;0.75;;
45540;SDS011;31265;49.680;8.608;2022-08-21T12:15:14;1.45;;;0.60;;
45540;SDS011;31265;49.680;8.608;2022-08-21T12:17:54;3.78;;;1.33;;
45540;SDS011;31265;49.680;8.608;2022-08-21T12:20:32;2.47;;;0.93;;
45540;SDS011;31265;49.680;8.608;2022-08-21T12:23:25;2.92;;;0.85;;
45540;SDS011;31265;49.680;8.608;2022-08-21T12:26:14;2.72;;;0.80;;
45540;SDS011;31265;49.680;8.608;2022-08-21T12:28:48;2.53;;;1.33;;
45540;SDS011;31265;49.680;8.608;2022-08-21T12:31:20;4.37;;;1.77;;
45540;SDS011;31265;49.680;8.608;2022-08-21T12:33:53;3.20;;;1.20;;
45540;SDS011;31265;49.680;8.608;2022-08-21T12:36:25;3.50;;;1.02;;
45540;SDS011;31265;49.680;8.608;2022-08-21T12:39:10;2.30;;;1.08;;
45540;SDS011;31265;49.680;8.608;2022-08-21T12:41:43;3.10;;;0.98;;
45540;SDS011;31265;49.680;8.608;2022-08-21T12:44:15;1.83;;;0.80;;
45540;SDS011;31265;49.680;8.608;2022-08-21T12:46:46;1.42;;;0.65;;
45540;SDS011;31265;49.680;8.608;2022-08-21T12:49:19;2.00;;;0.90;;
45540;SDS011;31265;49.680;8.608;2022-08-21T12:51:54;5.55;;;1.30;;
45540;SDS011;31265;49.680;8.608;2022-08-21T12:54:27;3.40;;;1.35;;
45540;SDS011;31265;49.680;8.608;2022-08-21T12:56:58;2.35;;;1.08;;
45540;SDS011;31265;49.680;8.608;2022-08-21T12:59:28;2.25;;;0.95;;
45540;SDS011;31265;49.680;8.608;2022-08-21T13:01:58;3.33;;;0.95;;
45540;SDS011;31265;49.680;8.608;2022-08-21T13:04:32;2.47;;;1.10;;
45540;SDS011;31265;49.680;8.608;2022-08-21T13:07:05;2.67;;;0.90;;
45540;SDS011;31265;49.680;8.608;2022-08-21T13:09:41;1.65;;;0.77;;
45540;SDS011;31265;49.680;8.608;2022-08-21T13:12:15;1.30;;;0.55;;
45540;SDS011;31265;49.680;8.608;2022-08-21T13:14:45;1.83;;;0.70;;
45540;SDS011;31265;49.680;8.608;2022-08-21T13:17:14;2.08;;;0.70;;
45540;SDS011;31265;49.680;8.608;2022-08-21T13:19:56;2.42;;;0.70;;
45540;SDS011;31265;49.680;8.608;2022-08-21T13:22:26;2.58;;;1.10;;
45540;SDS011;31265;49.680;8.608;2022-08-21T13:25:02;3.05;;;1.48;;
45540;SDS011;31265;49.680;8.608;2022-08-21T13:27:36;4.07;;;0.90;;
45540;SDS011;31265;49.680;8.608;2022-08-21T13:30:10;1.70;;;0.70;;
45540;SDS011;31265;49.680;8.608;2022-08-21T13:32:42;5.95;;;1.33;;
45540;SDS011;31265;49.680;8.608;2022-08-21T13:35:15;2.65;;;0.80;;
45540;SDS011;31265;49.680;8.608;2022-08-21T13:37:45;2.13;;;0.90;;
45540;SDS011;31265;49.680;8.608;2022-08-21T13:40:17;1.95;;;0.77;;
45540;SDS011;31265;49.680;8.608;2022-08-21T13:42:47;3.65;;;1.08;;
45540;SDS011;31265;49.680;8.608;2022-08-21T13:45:21;2.25;;;0.70;;
45540;SDS011;31265;49.680;8.608;2022-08-21T13:47:52;4.28;;;1.05;;
45540;SDS011;31265;49.680;8.608;2022-08-21T13:50:22;2.28;;;0.77;;
45540;SDS011;31265;49.680;8.608;2022-08-21T13:52:55;3.10;;;1.10;;
45540;SDS011;31265;49.680;8.608;2022-08-21T13:55:35;2.10;;;0.90;;
45540;SDS011;31265;49.680;8.608;2022-08-21T13:58:05;2.10;;;0.73;;
45540;SDS011;31265;49.680;8.608;2022-08-21T14:03:25;3.00;;;1.00;;
45540;SDS011;31265;49.680;8.608;2022-08-21T14:05:56;1.25;;;0.70;;
45540;SDS011;31265;49.680;8.608;2022-08-21T14:08:27;3.95;;;0.75;;
45540;SDS011;31265;49.680;8.608;2022-08-21T14:11:02;2.03;;;1.00;;
45540;SDS011;31265;49.680;8.608;2022-08-21T14:13:36;2.92;;;0.77;;
45540;SDS011;31265;49.680;8.608;2022-08-21T14:16:13;2.30;;;1.02;;
45540;SDS011;31265;49.680;8.608;2022-08-21T14:18:44;1.75;;;0.68;;
45540;SDS011;31265;49.680;8.608;2022-08-21T14:21:14;3.30;;;1.08;;
45540;SDS011;31265;49.680;8.608;2022-08-21T14:24:05;2.63;;;0.93;;
45540;SDS011;31265;49.680;8.608;2022-08-21T14:26:42;3.38;;;1.35;;
45540;SDS011;31265;49.680;8.608;2022-08-21T14:29:14;2.53;;;0.68;;
45540;SDS011;31265;49.680;8.608;2022-08-21T14:31:48;1.85;;;0.77;;
45540;SDS011;31265;49.680;8.608;2022-08-21T14:34:19;3.78;;;0.52;;
45540;SDS011;31265;49.680;8.608;2022-08-21T14:36:48;2.05;;;0.60;;
45540;SDS011;31265;49.680;8.608;2022-08-21T14:39:17;2.10;;;0.80;;
45540;SDS011;31265;49.680;8.608;2022-08-21T14:41:47;2.38;;;0.85;;
45540;SDS011;31265;49.680;8.608;2022-08-21T14:44:16;1.73;;;0.60;;
45540;SDS011;31265;49.680;8.608;2022-08-21T14:46:46;3.50;;;0.50;;
45540;SDS011;31265;49.680;8.608;2022-08-21T14:49:21;1.67;;;0.70;;
45540;SDS011;31265;49.680;8.608;2022-08-21T14:51:52;5.28;;;0.98;;
45540;SDS011;31265;49.680;8.608;2022-08-21T14:54:24;2.13;;;0.63;;
45540;SDS011;31265;49.680;8.608;2022-08-21T14:56:58;3.22;;;1.02;;
45540;SDS011;31265;49.680;8.608;2022-08-21T14:59:28;1.38;;;0.60;;
45540;SDS011;31265;49.680;8.608;2022-08-21T15:01:56;2.22;;;0.60;;
45540;SDS011;31265;49.680;8.608;2022-08-21T15:04:24;2.15;;;0.73;;
45540;SDS011;31265;49.680;8.608;2022-08-21T15:06:53;3.35;;;1.10;;
45540;SDS011;31265;49.680;8.608;2022-08-21T15:09:21;2.03;;;0.90;;
45540;SDS011;31265;49.680;8.608;2022-08-21T15:14:20;1.70;;;0.80;;
45540;SDS011;31265;49.680;8.608;2022-08-21T15:16:52;1.50;;;0.70;;
45540;SDS011;31265;49.680;8.608;2022-08-21T15:19:21;1.90;;;0.77;;
45540;SDS011;31265;49.680;8.608;2022-08-21T15:21:49;1.08;;;0.50;;
45540;SDS011;31265;49.680;8.608;2022-08-21T15:24:17;3.17;;;1.10;;
45540;SDS011;31265;49.680;8.608;2022-08-21T15:26:45;2.03;;;0.40;;
45540;SDS011;31265;49.680;8.608;2022-08-21T15:29:14;1.65;;;0.60;;
45540;SDS011;31265;49.680;8.608;2022-08-21T15:31:53;3.63;;;1.10;;
45540;SDS011;31265;49.680;8.608;2022-08-21T15:34:24;2.45;;;0.85;;
45540;SDS011;31265;49.680;8.608;2022-08-21T15:36:54;1.95;;;0.85;;
45540;SDS011;31265;49.680;8.608;2022-08-21T15:41:57;1.77;;;0.52;;